Time;durP1;ratioP1;P1;durP2;ratioP2;P2;SDS_P1;SDS_P2;PMS_P1;PMS_P2;Temp;Humidity;BMP_temperature;BMP_pressure;BME280_temperature;BME280_humidity;BME280_pressure;Samples;Min_cycle;Max_cycle;Signal;HPM_P1;HPM_P2
2022/01/11 00:00:08;;;;;;;6.60;3.88;;;;;;;1.82;100.00;93769.91;5134177;27;20102;-71
2022/01/11 00:02:37;;;;;;;4.28;2.55;;;;;;;1.66;100.00;93768.28;5134217;27;20027;-71
2022/01/11 00:05:03;;;;;;;4.45;2.40;;;;;;;1.54;100.00;93771.84;5134101;27;20015;-71
2022/01/11 00:07:30;;;;;;;4.07;2.22;;;;;;;1.71;100.00;93770.38;5134436;27;20031;-71
2022/01/11 00:09:57;;;;;;;3.72;2.28;;;;;;;1.59;100.00;93774.66;5134197;27;20092;-71
2022/01/11 00:12:22;;;;;;;3.67;2.10;;;;;;;1.75;100.00;93776.31;5133832;27;20072;-70
2022/01/11 00:14:48;;;;;;;5.20;2.35;;;;;;;1.72;100.00;93782.56;5133159;28;20023;-70
2022/01/11 00:17:14;;;;;;;3.75;1.80;;;;;;;1.66;100.00;93778.97;5132767;28;20031;-70
2022/01/11 00:19:39;;;;;;;3.38;1.85;;;;;;;1.68;100.00;93792.66;5133677;27;20019;-71
2022/01/11 00:22:08;;;;;;;2.60;1.50;;;;;;;1.67;100.00;93785.81;5134063;27;20106;-72
2022/01/11 00:24:35;;;;;;;2.05;1.23;;;;;;;1.63;100.00;93787.91;5132778;28;20519;-71
2022/01/11 00:27:04;;;;;;;2.35;1.50;;;;;;;1.54;100.00;93791.34;5133943;27;20027;-70
2022/01/11 00:29:31;;;;;;;3.17;1.80;;;;;;;1.43;100.00;93793.69;5133864;27;20015;-71
2022/01/11 00:32:01;;;;;;;3.15;1.42;;;;;;;1.44;100.00;93795.91;5133630;28;20093;-70
2022/01/11 00:34:36;;;;;;;4.00;1.40;;;;;;;1.38;100.00;93792.34;5133882;27;20373;-70
2022/01/11 00:37:02;;;;;;;2.45;1.27;;;;;;;1.50;100.00;93799.50;5137782;27;20027;-71
2022/01/11 00:39:27;;;;;;;2.25;1.40;;;;;;;1.22;100.00;93792.63;5137646;27;20080;-71
2022/01/11 00:41:53;;;;;;;3.53;1.30;;;;;;;1.46;100.00;93788.19;5136649;27;20023;-70
2022/01/11 00:44:18;;;;;;;3.17;1.80;;;;;;;1.53;100.00;93800.53;5137596;27;20051;-71
2022/01/11 00:46:45;;;;;;;3.05;1.95;;;;;;;1.44;100.00;93809.28;5138066;27;20084;-70
2022/01/11 00:49:11;;;;;;;4.45;3.20;;;;;;;1.38;100.00;93815.66;5137466;27;20012;-71
2022/01/11 00:51:36;;;;;;;5.45;3.83;;;;;;;1.45;100.00;93818.06;5137392;27;20034;-70
2022/01/11 00:54:02;;;;;;;6.25;3.97;;;;;;;1.43;100.00;93805.13;5137300;27;20079;-70
2022/01/11 00:56:28;;;;;;;5.07;3.53;;;;;;;1.52;100.00;93829.19;5137618;27;20019;-71
2022/01/11 00:58:53;;;;;;;4.55;3.13;;;;;;;1.65;100.00;93822.97;5137227;27;20023;-72
2022/01/11 01:01:19;;;;;;;7.05;3.25;;;;;;;1.63;100.00;93830.72;5137248;27;20031;-71
2022/01/11 01:03:44;;;;;;;4.85;3.25;;;;;;;1.65;100.00;93833.66;5137242;27;20357;-71
2022/01/11 01:06:10;;;;;;;5.45;3.15;;;;;;;1.36;100.00;93826.78;5137266;27;20019;-71
2022/01/11 01:08:35;;;;;;;4.00;3.00;;;;;;;1.50;100.00;93836.94;5136441;27;20019;-71
2022/01/11 01:11:01;;;;;;;4.13;3.05;;;;;;;1.67;100.00;93833.97;5137093;27;20027;-71
2022/01/11 01:13:28;;;;;;;4.22;2.67;;;;;;;1.81;100.00;93838.75;5137070;27;20466;-71
2022/01/11 01:15:55;;;;;;;3.10;2.13;;;;;;;1.85;100.00;93844.72;5137251;27;20058;-71
2022/01/11 01:18:23;;;;;;;3.80;2.40;;;;;;;1.92;100.00;93843.66;5136858;27;20106;-70
2022/01/11 01:20:51;;;;;;;2.40;1.92;;;;;;;1.63;100.00;93844.81;5136904;27;20091;-71
2022/01/11 01:23:17;;;;;;;3.95;2.20;;;;;;;1.95;100.00;93847.38;5135785;27;20573;-71
2022/01/11 01:25:44;;;;;;;3.80;2.08;;;;;;;1.85;100.00;93854.66;5135815;27;20027;-71
2022/01/11 01:28:10;;;;;;;3.20;1.73;;;;;;;1.65;100.00;93860.41;5137014;27;20102;-71
2022/01/11 01:30:37;;;;;;;1.95;1.25;;;;;;;1.57;100.00;93861.91;5135694;27;20106;-72
2022/01/11 01:33:03;;;;;;;3.33;1.63;;;;;;;1.64;100.00;93875.00;5136686;27;20034;-70
2022/01/11 01:35:36;;;;;;;2.63;1.20;;;;;;;1.72;100.00;93865.50;5135634;27;20051;-70
2022/01/11 01:38:01;;;;;;;2.08;1.23;;;;;;;1.75;100.00;93867.28;5136880;27;20030;-71
2022/01/11 01:40:35;;;;;;;1.48;0.90;;;;;;;1.57;100.00;93872.59;5136796;27;20019;-72
2022/01/11 01:43:00;;;;;;;1.27;0.88;;;;;;;1.43;100.00;93863.97;5136710;27;20409;-71
2022/01/11 01:45:26;;;;;;;3.28;1.00;;;;;;;1.81;100.00;93865.53;5136681;27;20095;-70
2022/01/11 01:47:56;;;;;;;2.08;1.00;;;;;;;1.57;100.00;93862.66;5135216;27;20458;-70
2022/01/11 01:50:22;;;;;;;1.10;0.73;;;;;;;1.40;100.00;93864.84;5136585;27;20091;-70
2022/01/11 01:52:48;;;;;;;1.25;0.68;;;;;;;1.61;100.00;93862.50;5136236;27;20035;-70
2022/01/11 01:55:14;;;;;;;1.90;0.90;;;;;;;1.61;100.00;93873.19;5136225;27;20042;-70
2022/01/11 01:57:40;;;;;;;0.60;0.60;;;;;;;1.86;100.00;93880.97;5136118;27;20027;-71
2022/01/11 02:00:11;;;;;;;1.40;0.70;;;;;;;1.57;100.00;93869.91;5136027;27;20092;-71
2022/01/11 02:02:37;;;;;;;0.90;0.70;;;;;;;1.65;100.00;93874.56;5136448;27;20023;-71
2022/01/11 02:05:05;;;;;;;1.02;0.70;;;;;;;1.79;100.00;93883.19;5136304;27;20031;-71
2022/01/11 02:07:31;;;;;;;1.63;0.85;;;;;;;1.75;100.00;93872.63;5136251;27;20034;-71
2022/01/11 02:09:57;;;;;;;0.90;0.73;;;;;;;1.61;100.00;93883.91;5136020;27;20019;-71
2022/01/11 02:12:24;;;;;;;1.83;0.80;;;;;;;1.68;100.00;93883.63;5135994;27;20042;-71
2022/01/11 02:14:50;;;;;;;0.82;0.60;;;;;;;1.90;100.00;93880.81;5135933;27;20019;-70
2022/01/11 02:17:15;;;;;;;1.15;0.65;;;;;;;1.68;100.00;93889.72;5134812;27;20092;-71
2022/01/11 02:19:41;;;;;;;1.25;0.80;;;;;;;1.54;100.00;93889.53;5136124;27;20023;-70
2022/01/11 02:22:06;;;;;;;1.27;0.70;;;;;;;0.82;100.00;93888.38;5134650;27;20023;-70
2022/01/11 02:24:33;;;;;;;0.95;0.80;;;;;;;1.18;100.00;93889.72;5134698;27;20023;-70
2022/01/11 02:26:59;;;;;;;1.52;1.00;;;;;;;1.57;100.00;93894.00;5135914;27;20459;-70
2022/01/11 02:29:26;;;;;;;1.65;0.85;;;;;;;1.56;100.00;93889.84;5135852;27;20023;-70
2022/01/11 02:31:52;;;;;;;2.05;0.95;;;;;;;1.34;100.00;93888.00;5134557;27;20023;-70
2022/01/11 02:34:17;;;;;;;3.90;1.10;;;;;;;1.56;100.00;93893.25;5135452;27;20302;-70
2022/01/11 02:36:43;;;;;;;1.85;1.00;;;;;;;1.52;100.00;93901.41;5134473;27;20031;-71
2022/01/11 02:39:09;;;;;;;1.15;0.88;;;;;;;1.51;100.00;93897.28;5135577;27;20027;-70
2022/01/11 02:41:34;;;;;;;2.67;1.10;;;;;;;1.54;100.00;93902.91;5134269;27;20072;-70
2022/01/11 02:44:01;;;;;;;1.10;0.80;;;;;;;1.58;100.00;93900.84;5135135;27;20047;-70
2022/01/11 02:46:27;;;;;;;2.92;0.95;;;;;;;1.28;100.00;93905.81;5135539;27;20047;-71
2022/01/11 02:48:55;;;;;;;0.95;0.80;;;;;;;1.66;100.00;93912.75;5135435;27;20474;-71
2022/01/11 02:51:24;;;;;;;2.65;1.65;;;;;;;1.74;100.00;93897.91;5134079;27;20340;-71
2022/01/11 02:53:51;;;;;;;1.67;1.08;;;;;;;1.76;100.00;93900.13;5135106;27;20019;-71
2022/01/11 02:56:18;;;;;;;0.95;0.90;;;;;;;1.64;100.00;93899.09;5135389;27;20027;-70
2022/01/11 02:58:44;;;;;;;1.60;1.00;;;;;;;1.66;100.00;93918.84;5134557;27;20026;-71
2022/01/11 03:01:11;;;;;;;1.42;1.00;;;;;;;1.58;100.00;93916.88;5135750;27;20443;-71
2022/01/11 03:03:37;;;;;;;1.63;1.10;;;;;;;1.45;100.00;93920.41;5135260;27;20399;-71
2022/01/11 03:06:04;;;;;;;1.50;1.00;;;;;;;1.39;100.00;93921.44;5134884;27;20026;-71
2022/01/11 03:08:39;;;;;;;1.98;1.10;;;;;;;1.50;100.00;93930.53;5134793;27;20459;-71
2022/01/11 03:11:06;;;;;;;1.35;0.82;;;;;;;1.75;100.00;93920.81;5135049;27;20023;-71
2022/01/11 03:13:35;;;;;;;1.63;0.90;;;;;;;1.62;100.00;93933.53;5135197;27;20042;-70
2022/01/11 03:16:01;;;;;;;1.23;0.93;;;;;;;1.54;100.00;93929.66;5133888;27;20352;-70
2022/01/11 03:18:26;;;;;;;1.33;0.90;;;;;;;1.55;100.00;93929.22;5134549;27;20565;-70
2022/01/11 03:20:53;;;;;;;2.05;0.85;;;;;;;1.39;100.00;93932.13;5134800;27;20018;-70
2022/01/11 03:23:19;;;;;;;0.75;0.75;;;;;;;1.35;100.00;93942.97;5134482;27;20033;-70
2022/01/11 03:25:47;;;;;;;1.45;1.00;;;;;;;1.28;100.00;93937.88;5134516;27;20069;-70
2022/01/11 03:28:14;;;;;;;1.08;0.90;;;;;;;1.37;100.00;93935.25;5134439;27;20086;-69
2022/01/11 03:30:39;;;;;;;1.55;0.80;;;;;;;1.44;100.00;93947.59;5134425;27;20018;-70
2022/01/11 03:33:08;;;;;;;2.22;1.10;;;;;;;1.39;100.00;93943.59;5134358;27;20084;-70
2022/01/11 03:35:36;;;;;;;1.50;1.00;;;;;;;1.25;100.00;93939.50;5134234;27;20019;-70
2022/01/11 03:38:04;;;;;;;1.88;1.10;;;;;;;1.55;100.00;93949.88;5133260;27;20019;-70
2022/01/11 03:40:30;;;;;;;1.50;0.95;;;;;;;0.89;100.00;93940.09;5134431;27;20447;-70
2022/01/11 03:42:56;;;;;;;1.10;0.90;;;;;;;1.08;100.00;93947.00;5133190;27;20023;-70
2022/01/11 03:45:22;;;;;;;1.10;0.80;;;;;;;1.33;100.00;93945.34;5133999;27;20058;-70
2022/01/11 03:47:50;;;;;;;2.95;1.10;;;;;;;1.44;100.00;93951.03;5134156;27;20083;-70
2022/01/11 03:50:16;;;;;;;0.70;0.63;;;;;;;1.44;100.00;93948.34;5134202;27;20094;-70
2022/01/11 03:52:43;;;;;;;1.30;0.90;;;;;;;1.41;100.00;93954.59;5134610;27;20386;-70
2022/01/11 03:55:12;;;;;;;2.90;1.00;;;;;;;1.47;100.00;93950.16;5134087;27;20019;-70
2022/01/11 03:57:40;;;;;;;0.90;0.75;;;;;;;1.13;100.00;93949.13;5134338;27;20421;-70
2022/01/11 04:00:17;;;;;;;1.20;0.73;;;;;;;1.01;100.00;93957.97;5132949;27;20019;-70
2022/01/11 04:02:44;;;;;;;1.45;0.90;;;;;;;1.42;100.00;93966.00;5134498;27;20383;-70
2022/01/11 04:05:12;;;;;;;3.28;0.80;;;;;;;1.25;100.00;93965.50;5133850;27;20435;-70
2022/01/11 04:07:38;;;;;;;1.25;0.90;;;;;;;1.11;100.00;93962.16;5133820;27;20316;-70
2022/01/11 04:10:05;;;;;;;1.02;0.77;;;;;;;1.17;100.00;93968.44;5133092;27;20094;-70
2022/01/11 04:12:30;;;;;;;0.88;0.77;;;;;;;1.40;100.00;93981.75;5132746;27;20027;-70
2022/01/11 04:14:56;;;;;;;0.88;0.70;;;;;;;0.86;100.00;93973.78;5133836;27;20034;-71
2022/01/11 04:17:22;;;;;;;0.73;0.70;;;;;;;1.18;100.00;93983.28;5133721;27;20025;-70
2022/01/11 04:19:47;;;;;;;1.02;0.80;;;;;;;0.73;100.00;93976.50;5132679;28;20026;-70
2022/01/11 04:22:13;;;;;;;0.65;0.65;;;;;;;1.04;100.00;93989.16;5133755;27;20038;-70
2022/01/11 04:24:39;;;;;;;1.20;0.80;;;;;;;1.30;100.00;93989.75;5133686;27;20475;-71
2022/01/11 04:27:05;;;;;;;0.98;0.70;;;;;;;1.21;100.00;93995.03;5132896;28;20416;-71
2022/01/11 04:29:30;;;;;;;0.93;0.80;;;;;;;1.11;100.00;94004.19;5133923;27;20022;-70
2022/01/11 04:31:56;;;;;;;1.13;0.90;;;;;;;0.74;100.00;94004.72;5133616;27;20019;-70
2022/01/11 04:34:22;;;;;;;1.00;0.90;;;;;;;0.55;100.00;94003.09;5133897;27;20083;-70
2022/01/11 04:36:47;;;;;;;1.52;0.80;;;;;;;0.99;100.00;94011.84;5133688;27;20029;-70
2022/01/11 04:39:14;;;;;;;0.75;0.75;;;;;;;1.09;100.00;94012.66;5135068;28;20020;-70
2022/01/11 04:41:40;;;;;;;0.80;0.60;;;;;;;0.79;100.00;94009.50;5134152;27;20129;-71
2022/01/11 04:44:06;;;;;;;1.40;0.90;;;;;;;1.08;100.00;94013.84;5133484;27;20394;-70
2022/01/11 04:46:32;;;;;;;0.80;0.75;;;;;;;0.99;100.00;94016.44;5137149;27;20019;-70
2022/01/11 04:49:00;;;;;;;1.67;1.17;;;;;;;0.98;100.00;94022.97;5142006;27;20046;-69
2022/01/11 04:51:26;;;;;;;1.48;0.98;;;;;;;0.79;100.00;94025.53;5143176;27;20027;-70
2022/01/11 04:53:52;;;;;;;2.22;1.02;;;;;;;0.75;100.00;94022.22;5146538;27;20493;-70
2022/01/11 04:56:18;;;;;;;0.77;0.75;;;;;;;0.43;100.00;94034.00;5146692;27;20023;-70
2022/01/11 04:58:43;;;;;;;2.83;1.00;;;;;;;0.34;100.00;94031.97;5141528;27;20117;-70
2022/01/11 05:01:09;;;;;;;1.70;1.15;;;;;;;0.74;100.00;94041.38;5134383;28;20042;-70
2022/01/11 05:03:35;;;;;;;1.45;1.00;;;;;;;0.66;100.00;94036.25;5135430;27;20102;-70
2022/01/11 05:06:01;;;;;;;1.10;0.90;;;;;;;0.38;100.00;94040.59;5132553;28;20027;-70
2022/01/11 05:08:26;;;;;;;2.75;0.90;;;;;;;0.34;100.00;94031.97;5133330;27;20015;-69
2022/01/11 05:10:52;;;;;;;1.92;1.20;;;;;;;0.18;100.00;94040.88;5133828;27;20027;-70
2022/01/11 05:13:19;;;;;;;1.05;0.93;;;;;;;0.57;100.00;94048.78;5133260;27;20015;-69
2022/01/11 05:15:46;;;;;;;1.42;1.00;;;;;;;0.62;100.00;94040.22;5133152;27;20023;-69
2022/01/11 05:18:11;;;;;;;2.83;1.35;;;;;;;0.67;100.00;94045.75;5132093;28;20019;-69
2022/01/11 05:20:38;;;;;;;9.80;2.28;;;;;;;0.70;100.00;94046.81;5133002;27;20110;-70
2022/01/11 05:23:04;;;;;;;3.88;1.95;;;;;;;0.70;100.00;94051.44;5137139;27;20051;-70
2022/01/11 05:25:31;;;;;;;4.20;1.55;;;;;;;1.03;100.00;94057.16;5136278;27;20507;-70
2022/01/11 05:27:59;;;;;;;2.13;1.13;;;;;;;0.90;100.00;94067.91;5136883;27;20058;-70
2022/01/11 05:30:25;;;;;;;1.63;1.10;;;;;;;0.77;100.00;94067.22;5136878;27;20087;-70
2022/01/11 05:32:50;;;;;;;1.00;0.90;;;;;;;0.87;100.00;94076.03;5136680;27;20440;-70
2022/01/11 05:35:18;;;;;;;1.38;0.80;;;;;;;0.76;100.00;94066.44;5135666;27;20034;-70
2022/01/11 05:37:43;;;;;;;1.05;0.80;;;;;;;1.16;100.00;94081.91;5136565;27;20022;-70
2022/01/11 05:40:10;;;;;;;1.70;1.10;;;;;;;0.35;100.00;94075.44;5135520;27;20030;-70
2022/01/11 05:42:38;;;;;;;5.07;1.02;;;;;;;0.46;100.00;94068.59;5135539;27;20348;-70
2022/01/11 05:45:06;;;;;;;1.55;0.85;;;;;;;0.38;100.00;94069.97;5136362;27;20047;-70
2022/01/11 05:47:31;;;;;;;1.02;0.85;;;;;;;0.78;100.00;94085.47;5136448;27;20484;-70
2022/01/11 05:49:57;;;;;;;2.05;1.05;;;;;;;0.95;100.00;94079.97;5136629;27;20077;-70
2022/01/11 05:52:22;;;;;;;3.20;1.15;;;;;;;0.98;100.00;94081.75;5136349;27;20423;-70
2022/01/11 05:54:48;;;;;;;2.28;1.08;;;;;;;0.82;100.00;94082.69;5135242;27;20033;-70
2022/01/11 05:57:13;;;;;;;1.63;0.90;;;;;;;0.48;100.00;94079.56;5136449;27;20027;-70
2022/01/11 05:59:39;;;;;;;1.80;1.00;;;;;;;0.60;100.00;94082.63;5135069;27;20525;-71
2022/01/11 06:02:05;;;;;;;3.85;1.20;;;;;;;0.72;100.00;94084.53;5136133;27;20546;-71
2022/01/11 06:04:31;;;;;;;2.10;1.20;;;;;;;0.90;100.00;94094.63;5135989;27;20091;-71
2022/01/11 06:06:56;;;;;;;4.40;1.17;;;;;;;0.97;100.00;94094.38;5135807;27;20098;-71
2022/01/11 06:09:26;;;;;;;2.10;1.10;;;;;;;1.00;100.00;94111.50;5135949;27;20123;-71
2022/01/11 06:11:52;;;;;;;1.48;1.00;;;;;;;0.84;100.00;94093.69;5136190;27;20027;-71
2022/01/11 06:14:18;;;;;;;1.38;0.90;;;;;;;0.67;100.00;94117.16;5136331;27;20023;-70
2022/01/11 06:16:43;;;;;;;1.83;0.80;;;;;;;0.28;100.00;94116.47;5135839;27;20471;-70
2022/01/11 06:19:09;;;;;;;1.08;0.90;;;;;;;0.76;100.00;94109.19;5135929;27;20023;-70
2022/01/11 06:21:34;;;;;;;2.00;1.20;;;;;;;1.08;100.00;94120.75;5134766;27;20031;-71
2022/01/11 06:24:00;;;;;;;2.60;1.70;;;;;;;1.10;100.00;94134.41;5135906;27;20030;-72
2022/01/11 06:26:25;;;;;;;8.93;5.28;;;;;;;1.08;100.00;94134.13;5135518;27;20019;-70
2022/01/11 06:28:51;;;;;;;8.43;3.00;;;;;;;1.01;100.00;94135.09;5135583;27;20106;-71
2022/01/11 06:31:16;;;;;;;7.15;2.88;;;;;;;1.04;100.00;94136.16;5134760;27;20452;-70
2022/01/11 06:33:42;;;;;;;3.30;1.50;;;;;;;1.23;100.00;94150.44;5134048;27;20034;-71
2022/01/11 06:36:10;;;;;;;4.80;1.98;;;;;;;0.99;100.00;94136.72;5136123;27;20084;-71
2022/01/11 06:38:38;;;;;;;6.80;1.23;;;;;;;0.80;100.00;94131.19;5135584;27;20019;-71
2022/01/11 06:41:04;;;;;;;2.33;1.30;;;;;;;0.99;100.00;94144.72;5135443;27;20039;-70
2022/01/11 06:43:30;;;;;;;4.53;1.92;;;;;;;0.76;100.00;94154.63;5135337;27;20047;-72
2022/01/11 06:45:55;;;;;;;5.05;2.20;;;;;;;0.76;100.00;94145.88;5135843;27;20386;-70
2022/01/11 06:48:20;;;;;;;5.68;2.35;;;;;;;0.75;100.00;94163.06;5135467;27;20470;-71
2022/01/11 06:50:47;;;;;;;4.57;2.30;;;;;;;0.55;100.00;94152.66;5135007;27;20019;-71
2022/01/11 06:53:12;;;;;;;4.47;2.30;;;;;;;0.65;100.00;94156.88;5134925;27;20098;-71
2022/01/11 06:55:38;;;;;;;6.40;3.90;;;;;;;0.56;100.00;94162.91;5136486;27;20102;-71
2022/01/11 06:58:03;;;;;;;4.70;2.35;;;;;;;0.41;100.00;94146.56;5133980;27;20015;-71
2022/01/11 07:00:29;;;;;;;6.60;2.60;;;;;;;0.98;100.00;94167.28;5133871;27;20019;-70
2022/01/11 07:02:55;;;;;;;2.40;1.50;;;;;;;0.90;100.00;94171.38;5135142;27;20023;-70
2022/01/11 07:05:20;;;;;;;3.00;1.63;;;;;;;0.78;100.00;94168.31;5134856;27;20023;-70
2022/01/11 07:07:46;;;;;;;1.77;1.38;;;;;;;1.03;100.00;94166.75;5134853;27;20084;-70
2022/01/11 07:10:12;;;;;;;2.17;1.48;;;;;;;0.83;100.00;94189.16;5134797;27;20038;-70
2022/01/11 07:12:37;;;;;;;1.77;1.10;;;;;;;0.86;100.00;94181.44;5135040;27;20052;-70
2022/01/11 07:15:03;;;;;;;1.65;1.10;;;;;;;1.10;100.00;94179.88;5134597;27;20027;-69
2022/01/11 07:17:29;;;;;;;2.08;1.30;;;;;;;0.82;100.00;94192.25;5134631;27;20023;-70
2022/01/11 07:19:55;;;;;;;2.17;1.40;;;;;;;0.96;100.00;94186.44;5134494;27;20038;-70
2022/01/11 07:22:20;;;;;;;2.95;1.80;;;;;;;1.03;100.00;94196.16;5134562;27;20352;-70
2022/01/11 07:24:46;;;;;;;3.22;1.48;;;;;;;1.03;100.00;94193.47;5134458;27;20022;-70
2022/01/11 07:27:12;;;;;;;2.97;1.60;;;;;;;1.17;100.00;94206.38;5134784;27;20050;-70
2022/01/11 07:29:37;;;;;;;2.72;1.58;;;;;;;1.08;100.00;94200.94;5133386;27;20034;-71
2022/01/11 07:32:03;;;;;;;5.10;1.70;;;;;;;1.08;100.00;94219.66;5134663;27;20023;-70
2022/01/11 07:34:28;;;;;;;2.60;1.48;;;;;;;1.16;100.00;94220.19;5134281;27;20353;-71
2022/01/11 07:36:54;;;;;;;2.60;1.30;;;;;;;1.02;100.00;94218.69;5134785;27;20404;-71
2022/01/11 07:39:20;;;;;;;2.20;1.40;;;;;;;0.89;100.00;94212.66;5134650;27;20034;-71
2022/01/11 07:41:46;;;;;;;2.42;1.40;;;;;;;1.11;100.00;94234.84;5133131;27;20034;-71
2022/01/11 07:44:11;;;;;;;4.35;2.00;;;;;;;0.54;100.00;94223.25;5133734;27;20355;-69
2022/01/11 07:46:39;;;;;;;2.25;1.17;;;;;;;0.41;100.00;94229.34;5133552;27;20037;-70
2022/01/11 07:49:06;;;;;;;2.17;1.30;;;;;;;0.34;100.00;94232.22;5133968;27;20019;-69
2022/01/11 07:51:31;;;;;;;2.92;1.33;;;;;;;0.61;100.00;94229.13;5134001;27;20023;-71
2022/01/11 07:53:57;;;;;;;1.60;1.15;;;;;;;0.44;100.00;94225.81;5133265;27;20101;-70
2022/01/11 07:56:22;;;;;;;2.00;1.40;;;;;;;0.56;100.00;94223.56;5133862;27;20050;-69
2022/01/11 07:58:48;;;;;;;3.17;1.90;;;;;;;0.58;100.00;94226.56;5133654;27;20036;-69
2022/01/11 08:01:13;;;;;;;6.13;2.70;;;;;;;0.15;100.00;94240.00;5132860;27;20027;-69
2022/01/11 08:03:39;;;;;;;5.20;2.65;;;;;;;0.15;100.00;94234.66;5134567;27;20023;-69
2022/01/11 08:06:05;;;;;;;3.42;1.95;;;;;;;0.08;100.00;94248.22;5133867;27;20034;-69
2022/01/11 08:08:30;;;;;;;2.08;1.30;;;;;;;-0.07;100.00;94249.75;5133765;27;20376;-69
2022/01/11 08:10:56;;;;;;;5.07;1.10;;;;;;;0.24;100.00;94243.97;5133843;27;20098;-69
2022/01/11 08:13:23;;;;;;;1.48;1.08;;;;;;;-0.22;100.00;94244.84;5133808;27;20058;-71
2022/01/11 08:15:49;;;;;;;2.60;1.58;;;;;;;-0.26;100.00;94244.19;5134217;27;20111;-71
2022/01/11 08:18:14;;;;;;;3.33;1.33;;;;;;;-0.10;100.00;94258.63;5133841;27;20098;-70
2022/01/11 08:20:40;;;;;;;1.77;1.25;;;;;;;-0.22;100.00;94255.50;5133725;27;20024;-69
2022/01/11 08:23:06;;;;;;;1.80;1.38;;;;;;;-0.31;100.00;94259.94;5132611;28;20360;-73
2022/01/11 08:25:32;;;;;;;2.05;1.50;;;;;;;-0.53;100.00;94258.56;5133600;27;20452;-71
2022/01/11 08:27:59;;;;;;;3.92;2.28;;;;;;;-0.22;100.00;94258.16;5133635;27;20148;-70
2022/01/11 08:30:25;;;;;;;3.95;2.83;;;;;;;-0.51;100.00;94258.91;5133964;27;20363;-70
2022/01/11 08:32:50;;;;;;;3.22;1.77;;;;;;;-0.34;100.00;94272.22;5133678;27;20055;-71
2022/01/11 08:35:16;;;;;;;2.22;1.33;;;;;;;-0.26;100.00;94272.75;5133494;27;20061;-70
2022/01/11 08:37:41;;;;;;;3.45;1.75;;;;;;;-0.16;100.00;94282.41;5134203;27;20023;-70
2022/01/11 08:40:07;;;;;;;2.85;1.55;;;;;;;-0.04;100.00;94275.59;5134273;27;20438;-72
2022/01/11 08:42:33;;;;;;;3.70;1.50;;;;;;;-0.03;100.00;94277.09;5133773;27;20353;-72
2022/01/11 08:45:00;;;;;;;4.00;1.50;;;;;;;0.02;100.00;94279.25;5133505;27;20058;-71
2022/01/11 08:47:30;;;;;;;2.00;1.35;;;;;;;-0.35;100.00;94286.72;5133338;27;20121;-70
2022/01/11 08:49:57;;;;;;;6.28;1.83;;;;;;;0.01;100.00;94293.75;5134037;27;20011;-71
2022/01/11 08:52:23;;;;;;;5.35;2.10;;;;;;;-0.10;100.00;94301.31;5133602;27;20027;-71
2022/01/11 08:54:48;;;;;;;3.10;1.52;;;;;;;0.01;100.00;94293.75;5133576;27;20536;-71
2022/01/11 08:57:19;;;;;;;3.50;1.75;;;;;;;-0.29;100.00;94302.94;5135032;27;20030;-72
2022/01/11 08:59:44;;;;;;;3.15;1.70;;;;;;;-0.20;100.00;94311.84;5137484;27;20023;-71
2022/01/11 09:02:10;;;;;;;2.47;1.42;;;;;;;-0.27;100.00;94317.38;5137842;27;20015;-71
2022/01/11 09:04:35;;;;;;;3.28;1.65;;;;;;;-0.08;100.00;94304.28;5137424;27;20055;-71
2022/01/11 09:07:01;;;;;;;2.40;1.60;;;;;;;0.02;100.00;94310.53;5137386;27;20027;-71
2022/01/11 09:09:28;;;;;;;3.22;1.58;;;;;;;-0.47;100.00;94314.06;5137681;27;20034;-70
2022/01/11 09:11:54;;;;;;;2.78;1.42;;;;;;;-0.53;100.00;94316.50;5137007;27;20375;-70
2022/01/11 09:14:19;;;;;;;3.45;1.70;;;;;;;-0.05;100.00;94317.56;5137028;27;20023;-70
2022/01/11 09:16:45;;;;;;;3.55;1.60;;;;;;;-0.13;100.00;94307.50;5137075;27;20031;-70
2022/01/11 09:19:18;;;;;;;2.67;1.50;;;;;;;-0.32;100.00;94312.53;5137500;27;20444;-70
2022/01/11 09:21:44;;;;;;;3.20;1.85;;;;;;;0.21;100.00;94314.97;5137016;27;20015;-69
2022/01/11 09:24:12;;;;;;;2.80;1.45;;;;;;;0.15;100.00;94327.31;5138921;27;20023;-71
2022/01/11 09:26:39;;;;;;;4.07;1.55;;;;;;;-0.48;100.00;94331.22;5137728;27;20027;-70
2022/01/11 09:29:05;;;;;;;1.83;1.10;;;;;;;-0.31;100.00;94338.03;5139269;27;20023;-70
2022/01/11 09:31:30;;;;;;;3.47;1.80;;;;;;;-0.10;100.00;94336.00;5138630;27;20027;-70
2022/01/11 09:33:56;;;;;;;3.65;1.55;;;;;;;0.06;100.00;94327.94;5136602;27;20027;-70
2022/01/11 09:36:22;;;;;;;5.47;2.38;;;;;;;0.15;100.00;94328.09;5136460;27;20027;-70
2022/01/11 09:38:48;;;;;;;2.08;1.45;;;;;;;0.25;100.00;94330.88;5136749;27;20424;-70
2022/01/11 09:41:13;;;;;;;5.20;1.42;;;;;;;0.20;100.00;94339.41;5136372;27;20031;-73
2022/01/11 09:43:39;;;;;;;3.45;1.80;;;;;;;0.45;100.00;94339.47;5136587;27;20043;-69
2022/01/11 09:46:05;;;;;;;4.82;1.98;;;;;;;0.15;100.00;94330.75;5136585;27;20027;-68
2022/01/11 09:48:35;;;;;;;3.65;1.98;;;;;;;-0.14;100.00;94335.34;5136287;27;20023;-68
2022/01/11 09:51:01;;;;;;;3.60;2.00;;;;;;;-0.38;100.00;94332.91;5136372;27;20019;-68
2022/01/11 09:53:27;;;;;;;2.38;1.40;;;;;;;-0.75;100.00;94343.66;5136418;27;20050;-68
2022/01/11 09:55:53;;;;;;;3.47;1.88;;;;;;;-0.46;100.00;94336.88;5136390;27;20043;-69
2022/01/11 09:58:19;;;;;;;2.65;1.48;;;;;;;-0.86;100.00;94338.59;5136137;27;20019;-69
2022/01/11 10:00:45;;;;;;;3.80;1.40;;;;;;;-1.10;100.00;94339.91;5135994;27;20392;-69
2022/01/11 10:03:11;;;;;;;1.92;1.40;;;;;;;-0.89;100.00;94350.06;5136255;27;20023;-68
2022/01/11 10:05:37;;;;;;;2.72;1.50;;;;;;;-0.33;100.00;94350.28;5136478;27;20130;-68
2022/01/11 10:08:27;;;;;;;2.35;1.60;;;;;;;-0.72;100.00;94344.75;5134856;27;20019;-67
2022/01/11 10:10:58;;;;;;;4.63;1.83;;;;;;;-0.53;100.00;94356.50;5134873;27;20027;-69
2022/01/11 10:13:37;;;;;;;4.32;2.50;;;;;;;-0.63;100.00;94350.22;5136481;27;20027;-69
2022/01/11 10:16:23;;;;;;;3.30;2.10;;;;;;;-0.53;100.00;94351.91;5134892;27;20034;-69
2022/01/11 10:18:49;;;;;;;3.42;2.38;;;;;;;-0.67;100.00;94352.22;5134592;27;20019;-70
2022/01/11 10:21:37;;;;;;;2.80;1.88;;;;;;;-0.83;100.00;94352.22;5135748;27;20177;-69
2022/01/11 10:24:32;;;;;;;3.72;1.83;;;;;;;-0.73;100.00;94359.25;5134875;27;20421;-69
2022/01/11 10:27:01;;;;;;;3.28;2.15;;;;;;;-0.85;100.00;94349.97;5135822;27;20019;-68
2022/01/11 10:29:41;;;;;;;5.60;2.50;;;;;;;-1.06;100.00;94351.22;5135953;27;20059;-69
2022/01/11 10:32:37;;;;;;;4.05;2.03;;;;;;;-0.80;100.00;94357.47;5136119;27;20023;-68
2022/01/11 10:35:07;;;;;;;5.93;2.05;;;;;;;-0.40;100.00;94361.88;5135029;27;20035;-68
2022/01/11 10:37:36;;;;;;;4.60;1.70;;;;;;;-0.44;100.00;94363.88;5134313;27;20046;-68
2022/01/11 10:40:16;;;;;;;3.30;2.13;;;;;;;-0.33;100.00;94367.03;5135425;27;20390;-67
2022/01/11 10:42:46;;;;;;;3.25;1.95;;;;;;;-0.30;100.00;94368.13;5135467;27;20023;-69
2022/01/11 10:45:18;;;;;;;4.35;2.47;;;;;;;0.34;100.00;94368.38;5135302;27;20039;-67
2022/01/11 10:48:05;;;;;;;6.35;3.63;;;;;;;1.15;100.00;94371.81;5135638;27;20023;-68
2022/01/11 10:50:37;;;;;;;4.93;2.10;;;;;;;-0.04;100.00;94367.09;5134936;27;20107;-68
2022/01/11 10:53:04;;;;;;;;;;;;;;;-0.26;100.00;94366.13;5135471;27;20103;-67
2022/01/11 10:55:32;;;;;;;3.17;1.95;;;;;;;-0.73;100.00;94362.66;5135221;27;20057;-68
2022/01/11 10:58:03;;;;;;;3.88;2.45;;;;;;;-0.70;100.00;94355.72;5135020;27;20023;-68
2022/01/11 11:00:41;;;;;;;2.60;1.87;;;;;;;-0.79;100.00;94366.22;5135237;27;20023;-68
2022/01/11 11:03:15;;;;;;;4.55;1.85;;;;;;;-0.60;100.00;94370.75;5134998;27;20019;-68
2022/01/11 11:05:52;;;;;;;6.28;3.00;;;;;;;-0.37;100.00;94366.38;5133988;27;20114;-67
2022/01/11 11:08:24;;;;;;;3.40;2.00;;;;;;;-0.46;100.00;94363.53;5134790;27;20412;-68
2022/01/11 11:10:55;;;;;;;3.33;2.25;;;;;;;-0.97;100.00;94356.72;5135406;27;20026;-68
2022/01/11 11:13:31;;;;;;;2.65;1.90;;;;;;;-0.68;100.00;94350.75;5135182;27;20030;-67
2022/01/11 11:16:00;;;;;;;4.05;1.65;;;;;;;-0.98;100.00;94357.13;5135047;27;20088;-67
2022/01/11 11:18:35;;;;;;;3.38;2.28;;;;;;;-0.98;100.00;94354.47;5134760;27;20098;-67
2022/01/11 11:21:24;;;;;;;3.30;1.92;;;;;;;-1.34;100.00;94342.66;5133667;27;20023;-67
2022/01/11 11:23:55;;;;;;;3.78;2.13;;;;;;;-1.10;100.00;94358.53;5134994;27;20102;-67
2022/01/11 11:26:23;;;;;;;3.80;2.20;;;;;;;-1.10;100.00;94345.22;5135144;27;20026;-67
2022/01/11 11:28:49;;;;;;;3.17;2.30;;;;;;;-1.06;100.00;94356.56;5134479;27;20083;-66
2022/01/11 11:31:15;;;;;;;8.10;2.83;;;;;;;-1.15;100.00;94359.03;5134506;27;20023;-67